sensor_id;sensor_type;location;lat;lon;timestamp;pressure;altitude;pressure_sealevel;temperature;humidity
7050;BME280;22263;52.260;10.548;2022-12-18T00:00:27;101984.91;;;-5.95;100.00
7050;BME280;22263;52.260;10.548;2022-12-18T00:02:56;101974.94;;;-6.06;100.00
7050;BME280;22263;52.260;10.548;2022-12-18T00:05:27;101980.69;;;-6.14;100.00
7050;BME280;22263;52.260;10.548;2022-12-18T00:07:56;101985.13;;;-6.08;100.00
7050;BME280;22263;52.260;10.548;2022-12-18T00:10:25;101999.03;;;-6.11;100.00
7050;BME280;22263;52.260;10.548;2022-12-18T00:12:57;102005.00;;;-6.09;100.00
7050;BME280;22263;52.260;10.548;2022-12-18T00:15:34;102003.25;;;-6.03;100.00
7050;BME280;22263;52.260;10.548;2022-12-18T00:18:05;101999.75;;;-6.04;100.00
7050;BME280;22263;52.260;10.548;2022-12-18T00:20:40;102003.72;;;-6.06;100.00
7050;BME280;22263;52.260;10.548;2022-12-18T00:23:09;102002.38;;;-6.27;100.00
7050;BME280;22263;52.260;10.548;2022-12-18T00:25:38;102005.13;;;-6.15;100.00
7050;BME280;22263;52.260;10.548;2022-12-18T00:28:09;102009.31;;;-6.20;100.00
7050;BME280;22263;52.260;10.548;2022-12-18T00:30:38;102014.94;;;-6.21;100.00
7050;BME280;22263;52.260;10.548;2022-12-18T00:33:08;102001.59;;;-6.16;100.00
7050;BME280;22263;52.260;10.548;2022-12-18T00:35:37;102009.69;;;-6.16;100.00
7050;BME280;22263;52.260;10.548;2022-12-18T00:38:06;102008.16;;;-6.12;100.00
7050;BME280;22263;52.260;10.548;2022-12-18T00:40:38;102007.13;;;-6.11;100.00
7050;BME280;22263;52.260;10.548;2022-12-18T00:43:11;102012.28;;;-6.09;100.00
7050;BME280;22263;52.260;10.548;2022-12-18T00:45:37;102011.31;;;-6.15;100.00
7050;BME280;22263;52.260;10.548;2022-12-18T00:48:07;102009.47;;;-6.14;100.00
7050;BME280;22263;52.260;10.548;2022-12-18T00:50:36;102022.09;;;-6.15;100.00
7050;BME280;22263;52.260;10.548;2022-12-18T00:53:05;102015.47;;;-6.31;100.00
7050;BME280;22263;52.260;10.548;2022-12-18T00:55:34;102035.63;;;-6.33;100.00
7050;BME280;22263;52.260;10.548;2022-12-18T00:58:03;102023.78;;;-6.32;100.00
7050;BME280;22263;52.260;10.548;2022-12-18T01:00:34;102034.09;;;-6.29;100.00
7050;BME280;22263;52.260;10.548;2022-12-18T01:03:03;102025.91;;;-6.34;100.00
7050;BME280;22263;52.260;10.548;2022-12-18T01:05:33;102031.50;;;-6.36;100.00
7050;BME280;22263;52.260;10.548;2022-12-18T01:08:02;102036.19;;;-6.31;100.00
7050;BME280;22263;52.260;10.548;2022-12-18T01:10:31;102041.06;;;-6.40;100.00
7050;BME280;22263;52.260;10.548;2022-12-18T01:13:00;102042.34;;;-6.42;100.00
7050;BME280;22263;52.260;10.548;2022-12-18T01:15:33;102044.44;;;-6.44;100.00
7050;BME280;22263;52.260;10.548;2022-12-18T01:18:02;102038.66;;;-6.59;100.00
7050;BME280;22263;52.260;10.548;2022-12-18T01:20:31;102041.13;;;-6.58;100.00
7050;BME280;22263;52.260;10.548;2022-12-18T01:23:00;102036.28;;;-6.68;100.00
7050;BME280;22263;52.260;10.548;2022-12-18T01:25:29;102051.22;;;-6.72;100.00
7050;BME280;22263;52.260;10.548;2022-12-18T01:27:58;102047.94;;;-6.74;100.00
7050;BME280;22263;52.260;10.548;2022-12-18T01:30:28;102061.28;;;-6.85;100.00
7050;BME280;22263;52.260;10.548;2022-12-18T01:32:59;102057.66;;;-6.91;100.00
7050;BME280;22263;52.260;10.548;2022-12-18T01:35:28;102062.13;;;-6.85;100.00
7050;BME280;22263;52.260;10.548;2022-12-18T01:37:57;102055.13;;;-6.86;100.00
7050;BME280;22263;52.260;10.548;2022-12-18T01:40:27;102060.25;;;-6.84;100.00
7050;BME280;22263;52.260;10.548;2022-12-18T01:42:56;102057.03;;;-6.93;100.00
7050;BME280;22263;52.260;10.548;2022-12-18T01:45:27;102061.53;;;-7.05;100.00
7050;BME280;22263;52.260;10.548;2022-12-18T01:48:00;102054.66;;;-7.01;100.00
7050;BME280;22263;52.260;10.548;2022-12-18T01:50:32;102056.44;;;-6.95;100.00
7050;BME280;22263;52.260;10.548;2022-12-18T01:53:05;102059.38;;;-6.96;100.00
7050;BME280;22263;52.260;10.548;2022-12-18T01:55:37;102050.03;;;-6.94;100.00
7050;BME280;22263;52.260;10.548;2022-12-18T01:58:07;102052.50;;;-6.92;100.00
7050;BME280;22263;52.260;10.548;2022-12-18T02:00:36;102063.72;;;-6.95;100.00
7050;BME280;22263;52.260;10.548;2022-12-18T02:03:07;102063.72;;;-6.95;100.00
7050;BME280;22263;52.260;10.548;2022-12-18T02:05:44;102062.22;;;-6.91;100.00
7050;BME280;22263;52.260;10.548;2022-12-18T02:08:20;102051.53;;;-6.98;100.00
7050;BME280;22263;52.260;10.548;2022-12-18T02:10:56;102057.72;;;-7.16;100.00
7050;BME280;22263;52.260;10.548;2022-12-18T02:13:37;102055.59;;;-7.14;100.00
7050;BME280;22263;52.260;10.548;2022-12-18T02:16:17;102053.16;;;-7.15;100.00
7050;BME280;22263;52.260;10.548;2022-12-18T02:18:56;102037.88;;;-7.15;100.00
7050;BME280;22263;52.260;10.548;2022-12-18T02:21:32;102032.53;;;-7.39;100.00
7050;BME280;22263;52.260;10.548;2022-12-18T02:24:18;102048.50;;;-7.44;100.00
7050;BME280;22263;52.260;10.548;2022-12-18T02:26:56;102057.09;;;-7.36;100.00
7050;BME280;22263;52.260;10.548;2022-12-18T02:29:32;102059.56;;;-7.34;100.00
7050;BME280;22263;52.260;10.548;2022-12-18T02:32:04;102054.09;;;-7.28;100.00
7050;BME280;22263;52.260;10.548;2022-12-18T02:34:39;102053.69;;;-7.25;100.00
7050;BME280;22263;52.260;10.548;2022-12-18T02:37:14;102050.59;;;-7.28;100.00
7050;BME280;22263;52.260;10.548;2022-12-18T02:39:48;102048.50;;;-7.44;100.00
7050;BME280;22263;52.260;10.548;2022-12-18T02:42:20;102055.81;;;-7.33;100.00
7050;BME280;22263;52.260;10.548;2022-12-18T02:44:51;102061.84;;;-7.38;100.00
7050;BME280;22263;52.260;10.548;2022-12-18T02:47:26;102053.38;;;-7.35;100.00
7050;BME280;22263;52.260;10.548;2022-12-18T02:50:02;102043.53;;;-7.47;100.00
7050;BME280;22263;52.260;10.548;2022-12-18T02:52:38;102059.06;;;-7.50;100.00
7050;BME280;22263;52.260;10.548;2022-12-18T02:55:23;102059.66;;;-7.47;100.00
7050;BME280;22263;52.260;10.548;2022-12-18T02:58:04;102056.09;;;-7.41;100.00
7050;BME280;22263;52.260;10.548;2022-12-18T03:00:40;102055.66;;;-7.38;100.00
7050;BME280;22263;52.260;10.548;2022-12-18T03:03:15;102060.31;;;-7.27;100.00
7050;BME280;22263;52.260;10.548;2022-12-18T03:05:49;102065.47;;;-7.26;100.00
7050;BME280;22263;52.260;10.548;2022-12-18T03:08:21;102053.44;;;-7.23;100.00
7050;BME280;22263;52.260;10.548;2022-12-18T03:10:59;102048.66;;;-7.39;100.00
7050;BME280;22263;52.260;10.548;2022-12-18T03:13:37;102051.88;;;-7.31;100.00
7050;BME280;22263;52.260;10.548;2022-12-18T03:16:12;102046.34;;;-7.36;100.00
7050;BME280;22263;52.260;10.548;2022-12-18T03:18:46;102049.75;;;-7.29;100.00
7050;BME280;22263;52.260;10.548;2022-12-18T03:21:19;102051.34;;;-7.39;100.00
7050;BME280;22263;52.260;10.548;2022-12-18T03:23:51;102062.41;;;-7.29;100.00
7050;BME280;22263;52.260;10.548;2022-12-18T03:26:26;102053.72;;;-7.31;100.00
7050;BME280;22263;52.260;10.548;2022-12-18T03:29:08;102054.72;;;-7.26;100.00
7050;BME280;22263;52.260;10.548;2022-12-18T03:31:42;102053.69;;;-7.25;100.00
7050;BME280;22263;52.260;10.548;2022-12-18T03:34:21;102044.53;;;-7.24;100.00
7050;BME280;22263;52.260;10.548;2022-12-18T03:36:52;102051.00;;;-7.25;100.00
7050;BME280;22263;52.260;10.548;2022-12-18T03:39:23;102045.38;;;-7.23;100.00
7050;BME280;22263;52.260;10.548;2022-12-18T03:42:00;102041.19;;;-7.19;100.00
7050;BME280;22263;52.260;10.548;2022-12-18T03:44:42;102035.25;;;-7.21;100.00
7050;BME280;22263;52.260;10.548;2022-12-18T03:47:15;102042.09;;;-7.25;100.00
7050;BME280;22263;52.260;10.548;2022-12-18T03:49:48;102051.38;;;-7.21;100.00
7050;BME280;22263;52.260;10.548;2022-12-18T03:52:25;102043.66;;;-7.18;100.00
7050;BME280;22263;52.260;10.548;2022-12-18T03:54:58;102044.66;;;-7.12;100.00
7050;BME280;22263;52.260;10.548;2022-12-18T03:57:31;102047.38;;;-7.19;100.00
7050;BME280;22263;52.260;10.548;2022-12-18T04:00:08;102038.22;;;-7.11;100.00
7050;BME280;22263;52.260;10.548;2022-12-18T04:02:52;102046.97;;;-7.16;100.00
7050;BME280;22263;52.260;10.548;2022-12-18T04:05:30;102047.34;;;-7.12;100.00
7050;BME280;22263;52.260;10.548;2022-12-18T04:08:02;102040.91;;;-7.29;100.00
7050;BME280;22263;52.260;10.548;2022-12-18T04:10:35;102035.91;;;-7.26;100.00
7050;BME280;22263;52.260;10.548;2022-12-18T04:13:04;102030.06;;;-7.23;100.00
7050;BME280;22263;52.260;10.548;2022-12-18T04:15:37;102030.22;;;-7.18;100.00
7050;BME280;22263;52.260;10.548;2022-12-18T04:18:11;102031.72;;;-7.22;100.00
7050;BME280;22263;52.260;10.548;2022-12-18T04:20:42;102024.78;;;-7.29;100.00
7050;BME280;22263;52.260;10.548;2022-12-18T04:23:11;102033.88;;;-7.30;100.00
7050;BME280;22263;52.260;10.548;2022-12-18T04:25:40;102037.00;;;-7.33;100.00
7050;BME280;22263;52.260;10.548;2022-12-18T04:28:15;102040.50;;;-7.33;100.00
7050;BME280;22263;52.260;10.548;2022-12-18T04:30:46;102044.25;;;-7.34;100.00
7050;BME280;22263;52.260;10.548;2022-12-18T04:33:16;102046.63;;;-7.44;100.00
7050;BME280;22263;52.260;10.548;2022-12-18T04:35:44;102052.38;;;-7.40;100.00
7050;BME280;22263;52.260;10.548;2022-12-18T04:38:13;102046.19;;;-7.41;100.00
7050;BME280;22263;52.260;10.548;2022-12-18T04:40:43;102054.56;;;-7.56;100.00
7050;BME280;22263;52.260;10.548;2022-12-18T04:43:20;102066.47;;;-7.45;100.00
7050;BME280;22263;52.260;10.548;2022-12-18T04:45:51;102060.09;;;-7.51;100.00
7050;BME280;22263;52.260;10.548;2022-12-18T04:48:20;102059.78;;;-7.61;100.00
7050;BME280;22263;52.260;10.548;2022-12-18T04:50:51;102057.25;;;-7.56;100.00
7050;BME280;22263;52.260;10.548;2022-12-18T04:53:22;102056.81;;;-7.53;100.00
7050;BME280;22263;52.260;10.548;2022-12-18T04:56:02;102053.31;;;-7.53;100.00
7050;BME280;22263;52.260;10.548;2022-12-18T04:58:31;102059.72;;;-7.54;100.00
7050;BME280;22263;52.260;10.548;2022-12-18T05:01:03;102053.00;;;-7.63;100.00
7050;BME280;22263;52.260;10.548;2022-12-18T05:03:32;102046.19;;;-7.66;100.00
7050;BME280;22263;52.260;10.548;2022-12-18T05:06:00;102051.56;;;-7.66;100.00
7050;BME280;22263;52.260;10.548;2022-12-18T05:08:29;102040.81;;;-7.66;100.00
7050;BME280;22263;52.260;10.548;2022-12-18T05:10:59;102035.91;;;-7.69;100.00
7050;BME280;22263;52.260;10.548;2022-12-18T05:13:29;102036.31;;;-7.72;100.00
7050;BME280;22263;52.260;10.548;2022-12-18T05:15:58;102024.53;;;-7.71;100.00
7050;BME280;22263;52.260;10.548;2022-12-18T05:18:30;102026.84;;;-7.74;100.00
7050;BME280;22263;52.260;10.548;2022-12-18T05:20:59;102022.47;;;-7.69;100.00
7050;BME280;22263;52.260;10.548;2022-12-18T05:23:28;102034.41;;;-7.65;100.00
7050;BME280;22263;52.260;10.548;2022-12-18T05:26:00;102044.25;;;-7.77;100.00
7050;BME280;22263;52.260;10.548;2022-12-18T05:28:32;102040.91;;;-7.72;100.00
7050;BME280;22263;52.260;10.548;2022-12-18T05:31:03;102050.31;;;-7.63;100.00
7050;BME280;22263;52.260;10.548;2022-12-18T05:33:34;102039.13;;;-7.60;100.00
7050;BME280;22263;52.260;10.548;2022-12-18T05:36:06;102038.84;;;-7.52;100.00
7050;BME280;22263;52.260;10.548;2022-12-18T05:38:38;102044.53;;;-7.42;100.00
7050;BME280;22263;52.260;10.548;2022-12-18T05:41:08;102035.94;;;-7.51;100.00
7050;BME280;22263;52.260;10.548;2022-12-18T05:43:39;102040.47;;;-7.51;100.00
7050;BME280;22263;52.260;10.548;2022-12-18T05:46:12;102046.03;;;-7.46;100.00
7050;BME280;22263;52.260;10.548;2022-12-18T05:48:44;102044.81;;;-7.50;100.00
7050;BME280;22263;52.260;10.548;2022-12-18T05:51:16;102045.19;;;-7.46;100.00
7050;BME280;22263;52.260;10.548;2022-12-18T05:53:45;102044.97;;;-7.45;100.00
7050;BME280;22263;52.260;10.548;2022-12-18T05:56:17;102047.88;;;-7.46;100.00
7050;BME280;22263;52.260;10.548;2022-12-18T05:58:46;102046.47;;;-7.49;100.00
7050;BME280;22263;52.260;10.548;2022-12-18T06:01:17;102067.13;;;-7.50;100.00
7050;BME280;22263;52.260;10.548;2022-12-18T06:03:49;102072.16;;;-7.60;100.00
7050;BME280;22263;52.260;10.548;2022-12-18T06:06:21;102074.31;;;-7.68;100.00
7050;BME280;22263;52.260;10.548;2022-12-18T06:08:51;102077.41;;;-7.71;100.00
7050;BME280;22263;52.260;10.548;2022-12-18T06:11:23;102082.09;;;-7.60;100.00
7050;BME280;22263;52.260;10.548;2022-12-18T06:13:54;102079.69;;;-7.68;100.00
7050;BME280;22263;52.260;10.548;2022-12-18T06:16:25;102094.03;;;-7.56;100.00
7050;BME280;22263;52.260;10.548;2022-12-18T06:18:58;102096.94;;;-7.58;100.00
7050;BME280;22263;52.260;10.548;2022-12-18T06:21:28;102097.00;;;-7.64;100.00
7050;BME280;22263;52.260;10.548;2022-12-18T06:23:59;102098.91;;;-7.71;100.00
7050;BME280;22263;52.260;10.548;2022-12-18T06:26:29;102095.38;;;-7.72;100.00
7050;BME280;22263;52.260;10.548;2022-12-18T06:28:58;102100.75;;;-7.72;100.00
7050;BME280;22263;52.260;10.548;2022-12-18T06:31:27;102108.97;;;-7.67;100.00
7050;BME280;22263;52.260;10.548;2022-12-18T06:33:58;102109.91;;;-7.79;100.00
7050;BME280;22263;52.260;10.548;2022-12-18T06:36:28;102104.06;;;-7.70;100.00
7050;BME280;22263;52.260;10.548;2022-12-18T06:38:56;102106.56;;;-7.75;100.00
7050;BME280;22263;52.260;10.548;2022-12-18T06:41:26;102107.78;;;-7.71;100.00
7050;BME280;22263;52.260;10.548;2022-12-18T06:43:55;102108.59;;;-7.70;100.00
7050;BME280;22263;52.260;10.548;2022-12-18T06:46:26;102101.81;;;-7.73;100.00
7050;BME280;22263;52.260;10.548;2022-12-18T06:48:55;102102.84;;;-7.74;100.00
7050;BME280;22263;52.260;10.548;2022-12-18T06:51:26;102089.25;;;-7.79;100.00
7050;BME280;22263;52.260;10.548;2022-12-18T06:53:55;102092.16;;;-7.80;100.00
7050;BME280;22263;52.260;10.548;2022-12-18T06:56:24;102107.59;;;-7.76;100.00
7050;BME280;22263;52.260;10.548;2022-12-18T06:58:54;102108.88;;;-7.78;100.00
7050;BME280;22263;52.260;10.548;2022-12-18T07:01:23;102107.25;;;-7.86;100.00
7050;BME280;22263;52.260;10.548;2022-12-18T07:03:53;102119.44;;;-7.83;100.00
7050;BME280;22263;52.260;10.548;2022-12-18T07:06:25;102116.94;;;-7.78;100.00
7050;BME280;22263;52.260;10.548;2022-12-18T07:08:55;102107.00;;;-7.78;100.00
7050;BME280;22263;52.260;10.548;2022-12-18T07:11:24;102109.47;;;-7.76;100.00
7050;BME280;22263;52.260;10.548;2022-12-18T07:13:53;102109.69;;;-7.78;100.00
7050;BME280;22263;52.260;10.548;2022-12-18T07:16:29;102111.13;;;-7.75;100.00
7050;BME280;22263;52.260;10.548;2022-12-18T07:18:58;102108.22;;;-7.74;100.00
7050;BME280;22263;52.260;10.548;2022-12-18T07:21:29;102111.56;;;-7.78;100.00
7050;BME280;22263;52.260;10.548;2022-12-18T07:23:59;102120.66;;;-7.79;100.00
7050;BME280;22263;52.260;10.548;2022-12-18T07:26:29;102118.66;;;-7.90;100.00
7050;BME280;22263;52.260;10.548;2022-12-18T07:29:01;102133.06;;;-7.85;100.00
7050;BME280;22263;52.260;10.548;2022-12-18T07:31:30;102143.97;;;-7.80;100.00
7050;BME280;22263;52.260;10.548;2022-12-18T07:33:59;102146.72;;;-7.86;100.00
7050;BME280;22263;52.260;10.548;2022-12-18T07:36:33;102168.09;;;-7.73;100.00
7050;BME280;22263;52.260;10.548;2022-12-18T07:39:02;102167.88;;;-7.72;100.00
7050;BME280;22263;52.260;10.548;2022-12-18T07:41:31;102170.41;;;-7.77;100.00
7050;BME280;22263;52.260;10.548;2022-12-18T07:44:09;102166.44;;;-7.68;100.00
7050;BME280;22263;52.260;10.548;2022-12-18T07:46:38;102172.00;;;-7.69;100.00
7050;BME280;22263;52.260;10.548;2022-12-18T07:49:25;102144.59;;;-7.78;100.00
7050;BME280;22263;52.260;10.548;2022-12-18T07:51:57;102166.38;;;-7.61;100.00
7050;BME280;22263;52.260;10.548;2022-12-18T07:54:58;102129.56;;;-7.85;100.00
7050;BME280;22263;52.260;10.548;2022-12-18T07:58:10;102181.22;;;-7.59;100.00
7050;BME280;22263;52.260;10.548;2022-12-18T08:00:31;102193.09;;;-7.41;100.00
7050;BME280;22263;52.260;10.548;2022-12-18T08:03:00;102187.63;;;-7.60;100.00
7050;BME280;22263;52.260;10.548;2022-12-18T08:05:29;102193.19;;;-7.55;100.00
7050;BME280;22263;52.260;10.548;2022-12-18T08:08:03;102190.41;;;-7.41;100.00
7050;BME280;22263;52.260;10.548;2022-12-18T08:10:57;102185.41;;;-7.38;100.00
7050;BME280;22263;52.260;10.548;2022-12-18T08:13:35;102159.19;;;-7.42;100.00
7050;BME280;22263;52.260;10.548;2022-12-18T08:16:09;102175.28;;;-7.11;100.00
7050;BME280;22263;52.260;10.548;2022-12-18T08:18:38;102174.13;;;-6.97;100.00
7050;BME280;22263;52.260;10.548;2022-12-18T08:21:08;102171.75;;;-6.87;100.00
7050;BME280;22263;52.260;10.548;2022-12-18T08:23:40;102162.69;;;-6.68;100.00
7050;BME280;22263;52.260;10.548;2022-12-18T08:26:11;102159.47;;;-6.58;100.00
7050;BME280;22263;52.260;10.548;2022-12-18T08:28:41;102147.44;;;-6.55;100.00
7050;BME280;22263;52.260;10.548;2022-12-18T08:31:10;102149.81;;;-6.29;100.00
7050;BME280;22263;52.260;10.548;2022-12-18T08:33:40;102145.78;;;-5.90;100.00
7050;BME280;22263;52.260;10.548;2022-12-18T08:36:10;102132.97;;;-5.53;100.00
7050;BME280;22263;52.260;10.548;2022-12-18T08:38:41;102134.03;;;-5.54;100.00
7050;BME280;22263;52.260;10.548;2022-12-18T08:41:11;102130.91;;;-5.28;100.00
7050;BME280;22263;52.260;10.548;2022-12-18T08:43:41;102134.50;;;-4.64;100.00
7050;BME280;22263;52.260;10.548;2022-12-18T08:46:25;102132.28;;;-4.16;100.00
7050;BME280;22263;52.260;10.548;2022-12-18T08:48:54;102119.19;;;-3.96;100.00
7050;BME280;22263;52.260;10.548;2022-12-18T08:51:24;102116.13;;;-3.71;100.00
7050;BME280;22263;52.260;10.548;2022-12-18T08:53:55;102116.13;;;-3.54;100.00
7050;BME280;22263;52.260;10.548;2022-12-18T08:56:24;102112.31;;;-3.41;100.00
7050;BME280;22263;52.260;10.548;2022-12-18T08:58:53;102120.38;;;-2.91;100.00
7050;BME280;22263;52.260;10.548;2022-12-18T09:01:23;102121.19;;;-2.91;100.00
7050;BME280;22263;52.260;10.548;2022-12-18T09:03:52;102126.06;;;-2.54;100.00
7050;BME280;22263;52.260;10.548;2022-12-18T09:06:22;102118.03;;;-2.66;100.00
7050;BME280;22263;52.260;10.548;2022-12-18T09:08:54;102108.97;;;-2.55;100.00
7050;BME280;22263;52.260;10.548;2022-12-18T09:11:26;102111.31;;;-2.42;100.00
7050;BME280;22263;52.260;10.548;2022-12-18T09:13:56;102112.25;;;-2.31;100.00
7050;BME280;22263;52.260;10.548;2022-12-18T09:16:27;102095.75;;;-1.76;100.00
7050;BME280;22263;52.260;10.548;2022-12-18T09:18:59;102102.97;;;-1.28;100.00
7050;BME280;22263;52.260;10.548;2022-12-18T09:21:30;102094.13;;;-1.13;100.00
7050;BME280;22263;52.260;10.548;2022-12-18T09:24:06;102098.47;;;-0.65;100.00
7050;BME280;22263;52.260;10.548;2022-12-18T09:26:35;102086.59;;;-0.54;100.00
7050;BME280;22263;52.260;10.548;2022-12-18T09:29:05;102086.34;;;-0.48;100.00
7050;BME280;22263;52.260;10.548;2022-12-18T09:31:36;102073.19;;;0.12;100.00
7050;BME280;22263;52.260;10.548;2022-12-18T09:34:10;102069.66;;;0.16;100.00
7050;BME280;22263;52.260;10.548;2022-12-18T09:36:39;102069.97;;;0.35;100.00
7050;BME280;22263;52.260;10.548;2022-12-18T09:39:11;102068.31;;;0.54;100.00
7050;BME280;22263;52.260;10.548;2022-12-18T09:41:46;102072.69;;;0.70;100.00
7050;BME280;22263;52.260;10.548;2022-12-18T09:44:23;102074.84;;;0.58;100.00
7050;BME280;22263;52.260;10.548;2022-12-18T09:47:02;102069.66;;;0.77;100.00
7050;BME280;22263;52.260;10.548;2022-12-18T09:49:35;102062.59;;;0.81;100.00
7050;BME280;22263;52.260;10.548;2022-12-18T09:52:11;102057.38;;;1.15;100.00
7050;BME280;22263;52.260;10.548;2022-12-18T09:54:45;102063.47;;;1.56;100.00
7050;BME280;22263;52.260;10.548;2022-12-18T09:57:17;102052.69;;;1.85;98.49
7050;BME280;22263;52.260;10.548;2022-12-18T09:59:51;102047.47;;;1.93;97.78
7050;BME280;22263;52.260;10.548;2022-12-18T10:02:23;102048.91;;;1.81;96.39
7050;BME280;22263;52.260;10.548;2022-12-18T10:05:02;102052.75;;;1.05;98.56
7050;BME280;22263;52.260;10.548;2022-12-18T10:07:40;102063.34;;;1.17;99.89
7050;BME280;22263;52.260;10.548;2022-12-18T10:10:23;102064.25;;;0.47;100.00
7050;BME280;22263;52.260;10.548;2022-12-18T10:13:02;102070.19;;;-0.02;100.00
7050;BME280;22263;52.260;10.548;2022-12-18T10:15:39;102072.59;;;-0.21;100.00
7050;BME280;22263;52.260;10.548;2022-12-18T10:18:22;102060.78;;;-0.52;100.00
7050;BME280;22263;52.260;10.548;2022-12-18T10:20:58;102074.94;;;-0.45;100.00
7050;BME280;22263;52.260;10.548;2022-12-18T10:23:33;102070.72;;;-0.10;100.00
7050;BME280;22263;52.260;10.548;2022-12-18T10:26:16;102073.78;;;0.24;100.00
7050;BME280;22263;52.260;10.548;2022-12-18T10:28:48;102078.91;;;0.15;100.00
7050;BME280;22263;52.260;10.548;2022-12-18T10:31:20;102096.34;;;0.34;100.00
7050;BME280;22263;52.260;10.548;2022-12-18T10:33:56;102098.41;;;-0.13;100.00
7050;BME280;22263;52.260;10.548;2022-12-18T10:36:25;102096.28;;;-0.06;100.00
7050;BME280;22263;52.260;10.548;2022-12-18T10:39:16;102081.66;;;0.25;100.00
7050;BME280;22263;52.260;10.548;2022-12-18T10:41:48;102080.03;;;0.39;100.00
7050;BME280;22263;52.260;10.548;2022-12-18T10:44:19;102077.28;;;0.90;100.00
7050;BME280;22263;52.260;10.548;2022-12-18T10:46:50;102074.88;;;0.33;100.00
7050;BME280;22263;52.260;10.548;2022-12-18T10:49:25;102080.59;;;0.57;100.00
7050;BME280;22263;52.260;10.548;2022-12-18T10:52:06;102082.75;;;0.95;100.00
7050;BME280;22263;52.260;10.548;2022-12-18T10:54:37;102075.16;;;0.52;100.00
7050;BME280;22263;52.260;10.548;2022-12-18T10:57:34;102066.16;;;0.36;100.00
7050;BME280;22263;52.260;10.548;2022-12-18T11:00:29;102059.34;;;0.23;100.00
7050;BME280;22263;52.260;10.548;2022-12-18T11:03:00;102048.41;;;0.94;100.00
7050;BME280;22263;52.260;10.548;2022-12-18T11:05:32;102050.09;;;1.59;100.00
7050;BME280;22263;52.260;10.548;2022-12-18T11:08:03;102043.84;;;2.03;100.00
7050;BME280;22263;52.260;10.548;2022-12-18T11:10:36;102044.25;;;2.25;100.00
7050;BME280;22263;52.260;10.548;2022-12-18T11:13:27;102039.63;;;1.82;100.00
7050;BME280;22263;52.260;10.548;2022-12-18T11:15:57;102037.41;;;1.84;100.00
7050;BME280;22263;52.260;10.548;2022-12-18T11:18:29;102031.09;;;1.93;100.00
7050;BME280;22263;52.260;10.548;2022-12-18T11:21:00;102032.69;;;1.50;100.00
7050;BME280;22263;52.260;10.548;2022-12-18T11:23:35;102023.47;;;2.29;100.00
7050;BME280;22263;52.260;10.548;2022-12-18T11:26:05;102027.13;;;1.75;100.00
7050;BME280;22263;52.260;10.548;2022-12-18T11:28:38;102008.31;;;1.69;100.00
7050;BME280;22263;52.260;10.548;2022-12-18T11:31:19;102009.00;;;2.62;100.00
7050;BME280;22263;52.260;10.548;2022-12-18T11:34:00;101998.41;;;3.27;100.00
7050;BME280;22263;52.260;10.548;2022-12-18T11:36:49;102006.25;;;2.62;100.00
7050;BME280;22263;52.260;10.548;2022-12-18T11:39:23;102008.06;;;1.70;100.00
7050;BME280;22263;52.260;10.548;2022-12-18T11:42:00;102008.13;;;0.91;100.00
7050;BME280;22263;52.260;10.548;2022-12-18T11:44:46;102015.78;;;0.69;100.00
7050;BME280;22263;52.260;10.548;2022-12-18T11:47:24;102022.88;;;0.75;100.00
7050;BME280;22263;52.260;10.548;2022-12-18T11:49:58;102027.25;;;1.99;100.00
7050;BME280;22263;52.260;10.548;2022-12-18T11:52:31;102034.63;;;2.67;100.00
7050;BME280;22263;52.260;10.548;2022-12-18T11:55:11;102033.56;;;2.29;100.00
7050;BME280;22263;52.260;10.548;2022-12-18T11:57:46;102018.03;;;2.87;100.00
7050;BME280;22263;52.260;10.548;2022-12-18T12:00:26;102004.66;;;3.33;100.00
7050;BME280;22263;52.260;10.548;2022-12-18T12:03:17;102021.66;;;4.88;94.37
7050;BME280;22263;52.260;10.548;2022-12-18T12:05:58;102009.59;;;5.30;85.48
7050;BME280;22263;52.260;10.548;2022-12-18T12:08:40;101993.59;;;6.31;75.35
7050;BME280;22263;52.260;10.548;2022-12-18T12:11:17;101991.53;;;6.90;65.83
7050;BME280;22263;52.260;10.548;2022-12-18T12:13:59;101991.28;;;6.02;63.64
7050;BME280;22263;52.260;10.548;2022-12-18T12:16:37;101973.13;;;5.79;66.17
7050;BME280;22263;52.260;10.548;2022-12-18T12:19:24;101976.56;;;5.35;68.11
7050;BME280;22263;52.260;10.548;2022-12-18T12:22:02;101980.44;;;5.34;73.61
7050;BME280;22263;52.260;10.548;2022-12-18T12:24:41;101972.25;;;5.56;72.66
7050;BME280;22263;52.260;10.548;2022-12-18T12:27:20;101947.97;;;5.86;71.47
7050;BME280;22263;52.260;10.548;2022-12-18T12:30:00;101963.25;;;5.56;71.77
7050;BME280;22263;52.260;10.548;2022-12-18T12:32:58;101948.78;;;4.27;78.80
7050;BME280;22263;52.260;10.548;2022-12-18T12:35:38;101939.66;;;4.32;83.86
7050;BME280;22263;52.260;10.548;2022-12-18T12:38:13;101926.34;;;4.12;86.72
7050;BME280;22263;52.260;10.548;2022-12-18T12:40:47;101933.81;;;3.74;91.54
7050;BME280;22263;52.260;10.548;2022-12-18T12:43:33;101937.75;;;4.32;90.70
7050;BME280;22263;52.260;10.548;2022-12-18T12:46:06;101932.69;;;3.56;93.70
7050;BME280;22263;52.260;10.548;2022-12-18T12:48:42;101923.16;;;2.69;100.00
7050;BME280;22263;52.260;10.548;2022-12-18T12:51:16;101945.09;;;2.06;100.00
7050;BME280;22263;52.260;10.548;2022-12-18T12:53:46;101933.38;;;1.66;100.00
7050;BME280;22263;52.260;10.548;2022-12-18T12:56:17;101931.41;;;1.33;100.00
7050;BME280;22263;52.260;10.548;2022-12-18T12:58:58;101930.72;;;1.02;100.00
7050;BME280;22263;52.260;10.548;2022-12-18T13:01:39;101916.69;;;0.75;100.00
7050;BME280;22263;52.260;10.548;2022-12-18T13:04:20;101913.16;;;0.74;100.00
7050;BME280;22263;52.260;10.548;2022-12-18T13:06:58;101909.94;;;0.62;100.00
7050;BME280;22263;52.260;10.548;2022-12-18T13:09:30;101909.38;;;0.65;100.00
7050;BME280;22263;52.260;10.548;2022-12-18T13:12:08;101908.56;;;0.60;100.00
7050;BME280;22263;52.260;10.548;2022-12-18T13:14:53;101912.38;;;0.59;100.00